Airfield :
LOGIN :

Register | Disclaimer

   EN    FR    IT 

 










Legend :    VFR   Marginal VFR   IFR   Intensive IFR   Very Intensive IFR
Visi :
Ceiling :
>= 8 km
>= 3000ft
5 to 8 km
1000 to 3000 ft
1500m to 5 km
500 to 1000 ft
800 to 1500m
200 to 500 ft
< 800m
< 200 ft
Symbols :   Thunderstorms  Fog  Heavy snow  Heavy precipitations  Wind > 20 kt
SIGMETs :     Misc.  Thunderstorms  Icing  Turbulence  Mountain Waves  Volcanic Ashes







- Airport Elevation : 277 ft
- IATA code : JER
- Download approach charts


EGJJ - Jersey

CURRENT METAR :
  • 162150Z AUTO 31012KT 9999 FEW019/// 09/07 Q1024 RERA

EXPIRED METARs :
  • 162120Z AUTO 31013KT 9999 FEW018/// SCT021/// BKN043/// 09/04 Q1023
  • 162050Z 31013KT 9999 FEW015 SCT017 08/06 Q1023
  • 162020Z 28015KT 9999 FEW011CB BKN015 08/07 Q1023 RERA
  • 161950Z 29014KT 9999 -SHRA FEW015CB BKN032 07/05 Q1024
  • 161920Z 30016KT 7000 -SHRA FEW012CB SCT024 BKN028 08/05 Q1023 RESHRA

TAF TAF EGJJ
Valid from the 16 at 21:00 until the 17 at 06:00 UTC


162004Z 1621/1706 32015KT 9999 FEW015 BKN040
ATIS : +44 1534 498 073
No reported NOTAMs for that airfield.



MET'MAP, your aeronautical weather chart ! - Copyright ORBIFLY December 2007 - Disclaimer

ORBIFLY MET'MAP TEAM :

Programming & Development : Alexandra Zaïnal
Concept & Development : Baudouin d'Aumeries
Co-Development & Prog : Marc-Olivier Méhu
Technical & hardware support : Manuel Goepfert

Contact : metmap@orbifly.com




SOURCES & CREDITS :

   NOAA